Gurdon, Arkansas
Current Conditions -  °F | °C
As of 7:56 PM on Thursday 20 Nov 2014 (Local Time) from KADF Reporting Station
Overcast Overcast  
Wind Chill: 51°   Ceiling: 3800
Heat Index: 51°   Visibility: 8mi
Dew Point: 46°   Wind: 6mph
Humidity: 83%   Direction: 30°NNE
Pressure: 30.17"   Gusts: NA
Location:  33.92°N, 93.15°W
Report Text: KADF 210156Z AUTO 03005KT 8SM OVC038 11/08 A3017 RMK AO2 T01050077 SLP231
Loading
Personal Weather Stations






























Interactive Weather Map New forecast layout! Learn more

10-Day Weather Forecast

Advertisements
Track Severe Weather on mobile